sensor_id;sensor_type;location;lat;lon;timestamp;temperature;humidity
27164;DHT22;14685;50.618;7.024;2024-01-16T00:02:09;5.00;99.90
27164;DHT22;14685;50.618;7.024;2024-01-16T00:04:37;5.00;99.90
27164;DHT22;14685;50.618;7.024;2024-01-16T00:07:06;5.00;99.90
27164;DHT22;14685;50.618;7.024;2024-01-16T00:09:34;4.90;99.90
27164;DHT22;14685;50.618;7.024;2024-01-16T00:12:05;5.00;99.90
27164;DHT22;14685;50.618;7.024;2024-01-16T00:14:37;5.00;99.90
27164;DHT22;14685;50.618;7.024;2024-01-16T00:17:05;5.00;99.90
27164;DHT22;14685;50.618;7.024;2024-01-16T00:19:32;5.00;99.90
27164;DHT22;14685;50.618;7.024;2024-01-16T00:21:59;5.00;99.90
27164;DHT22;14685;50.618;7.024;2024-01-16T00:24:29;5.00;99.90
27164;DHT22;14685;50.618;7.024;2024-01-16T00:26:57;5.00;99.90
27164;DHT22;14685;50.618;7.024;2024-01-16T00:29:26;5.00;99.90
27164;DHT22;14685;50.618;7.024;2024-01-16T00:31:53;5.00;99.90
27164;DHT22;14685;50.618;7.024;2024-01-16T00:34:21;5.00;99.90
27164;DHT22;14685;50.618;7.024;2024-01-16T00:36:48;5.00;99.90
27164;DHT22;14685;50.618;7.024;2024-01-16T00:39:15;5.00;99.90
27164;DHT22;14685;50.618;7.024;2024-01-16T00:41:42;5.00;99.90
27164;DHT22;14685;50.618;7.024;2024-01-16T00:44:10;5.00;99.90
27164;DHT22;14685;50.618;7.024;2024-01-16T00:46:37;5.00;99.90
27164;DHT22;14685;50.618;7.024;2024-01-16T00:49:04;5.00;99.90
27164;DHT22;14685;50.618;7.024;2024-01-16T00:51:31;5.00;99.90
27164;DHT22;14685;50.618;7.024;2024-01-16T00:53:58;5.00;99.90
27164;DHT22;14685;50.618;7.024;2024-01-16T00:56:25;5.00;99.90
27164;DHT22;14685;50.618;7.024;2024-01-16T00:58:54;5.00;99.90
27164;DHT22;14685;50.618;7.024;2024-01-16T01:01:21;5.00;99.90
27164;DHT22;14685;50.618;7.024;2024-01-16T01:03:48;5.00;99.90
27164;DHT22;14685;50.618;7.024;2024-01-16T01:06:15;5.00;99.90
27164;DHT22;14685;50.618;7.024;2024-01-16T01:08:44;5.00;99.90
27164;DHT22;14685;50.618;7.024;2024-01-16T01:11:11;5.00;99.90
27164;DHT22;14685;50.618;7.024;2024-01-16T01:13:39;4.90;99.90
27164;DHT22;14685;50.618;7.024;2024-01-16T01:16:08;4.90;99.90
27164;DHT22;14685;50.618;7.024;2024-01-16T01:18:35;4.90;99.90
27164;DHT22;14685;50.618;7.024;2024-01-16T01:21:04;4.90;99.90
27164;DHT22;14685;50.618;7.024;2024-01-16T01:23:31;4.90;99.90
27164;DHT22;14685;50.618;7.024;2024-01-16T01:26:00;4.90;99.90
27164;DHT22;14685;50.618;7.024;2024-01-16T01:28:27;4.90;99.90
27164;DHT22;14685;50.618;7.024;2024-01-16T01:30:54;4.90;99.90
27164;DHT22;14685;50.618;7.024;2024-01-16T01:33:21;4.90;99.90
27164;DHT22;14685;50.618;7.024;2024-01-16T01:35:49;4.90;99.90
27164;DHT22;14685;50.618;7.024;2024-01-16T01:38:16;4.90;99.90
27164;DHT22;14685;50.618;7.024;2024-01-16T01:40:45;4.90;99.90
27164;DHT22;14685;50.618;7.024;2024-01-16T01:43:19;4.90;99.90
27164;DHT22;14685;50.618;7.024;2024-01-16T01:48:25;4.80;99.90
27164;DHT22;14685;50.618;7.024;2024-01-16T01:50:52;4.80;99.90
27164;DHT22;14685;50.618;7.024;2024-01-16T01:53:20;4.80;99.90
27164;DHT22;14685;50.618;7.024;2024-01-16T01:55:47;4.80;99.90
27164;DHT22;14685;50.618;7.024;2024-01-16T01:58:14;4.80;99.90
27164;DHT22;14685;50.618;7.024;2024-01-16T02:00:41;4.80;99.90
27164;DHT22;14685;50.618;7.024;2024-01-16T02:03:08;4.80;99.90
27164;DHT22;14685;50.618;7.024;2024-01-16T02:05:39;4.80;99.90
27164;DHT22;14685;50.618;7.024;2024-01-16T02:08:06;4.90;99.90
27164;DHT22;14685;50.618;7.024;2024-01-16T02:10:37;4.80;99.90
27164;DHT22;14685;50.618;7.024;2024-01-16T02:13:05;4.80;99.90
27164;DHT22;14685;50.618;7.024;2024-01-16T02:15:33;4.80;99.90
27164;DHT22;14685;50.618;7.024;2024-01-16T02:18:01;4.80;99.90
27164;DHT22;14685;50.618;7.024;2024-01-16T02:20:28;4.80;99.90
27164;DHT22;14685;50.618;7.024;2024-01-16T02:22:55;4.80;99.90
27164;DHT22;14685;50.618;7.024;2024-01-16T02:25:24;4.80;99.90
27164;DHT22;14685;50.618;7.024;2024-01-16T02:27:50;4.80;99.90
27164;DHT22;14685;50.618;7.024;2024-01-16T02:30:18;4.70;99.90
27164;DHT22;14685;50.618;7.024;2024-01-16T02:32:46;4.80;99.90
27164;DHT22;14685;50.618;7.024;2024-01-16T02:35:13;4.80;99.90
27164;DHT22;14685;50.618;7.024;2024-01-16T02:37:41;4.80;99.90
27164;DHT22;14685;50.618;7.024;2024-01-16T02:40:08;4.80;99.90
27164;DHT22;14685;50.618;7.024;2024-01-16T02:42:36;4.80;99.90
27164;DHT22;14685;50.618;7.024;2024-01-16T02:45:05;4.80;99.90
27164;DHT22;14685;50.618;7.024;2024-01-16T02:47:33;4.80;99.90
27164;DHT22;14685;50.618;7.024;2024-01-16T02:50:00;4.80;99.90
27164;DHT22;14685;50.618;7.024;2024-01-16T02:52:28;4.80;99.90
27164;DHT22;14685;50.618;7.024;2024-01-16T02:54:55;4.80;99.90
27164;DHT22;14685;50.618;7.024;2024-01-16T02:57:22;4.80;99.90
27164;DHT22;14685;50.618;7.024;2024-01-16T02:59:50;4.80;99.90
27164;DHT22;14685;50.618;7.024;2024-01-16T03:02:17;4.90;99.90
27164;DHT22;14685;50.618;7.024;2024-01-16T03:04:46;4.90;99.90
27164;DHT22;14685;50.618;7.024;2024-01-16T03:07:13;4.80;99.90
27164;DHT22;14685;50.618;7.024;2024-01-16T03:09:39;4.90;99.90
27164;DHT22;14685;50.618;7.024;2024-01-16T03:12:06;4.90;99.90
27164;DHT22;14685;50.618;7.024;2024-01-16T03:14:34;4.90;99.90
27164;DHT22;14685;50.618;7.024;2024-01-16T03:17:03;4.80;99.90
27164;DHT22;14685;50.618;7.024;2024-01-16T03:19:34;4.80;99.90
27164;DHT22;14685;50.618;7.024;2024-01-16T03:22:00;4.70;99.90
27164;DHT22;14685;50.618;7.024;2024-01-16T03:24:28;4.80;99.90
27164;DHT22;14685;50.618;7.024;2024-01-16T03:26:55;4.80;99.90
27164;DHT22;14685;50.618;7.024;2024-01-16T03:29:22;4.80;99.90
27164;DHT22;14685;50.618;7.024;2024-01-16T03:31:50;4.80;99.90
27164;DHT22;14685;50.618;7.024;2024-01-16T03:34:17;4.70;99.90
27164;DHT22;14685;50.618;7.024;2024-01-16T03:36:44;4.80;99.90
27164;DHT22;14685;50.618;7.024;2024-01-16T03:39:11;4.80;99.90
27164;DHT22;14685;50.618;7.024;2024-01-16T03:41:41;4.80;99.90
27164;DHT22;14685;50.618;7.024;2024-01-16T03:44:14;4.80;99.90
27164;DHT22;14685;50.618;7.024;2024-01-16T03:46:42;4.70;99.90
27164;DHT22;14685;50.618;7.024;2024-01-16T03:49:09;4.80;99.90
27164;DHT22;14685;50.618;7.024;2024-01-16T03:51:36;4.80;99.90
27164;DHT22;14685;50.618;7.024;2024-01-16T03:54:07;4.80;99.90
27164;DHT22;14685;50.618;7.024;2024-01-16T03:56:35;4.80;99.90
27164;DHT22;14685;50.618;7.024;2024-01-16T03:59:03;4.80;99.90
27164;DHT22;14685;50.618;7.024;2024-01-16T04:01:31;4.70;99.90
27164;DHT22;14685;50.618;7.024;2024-01-16T04:03:59;4.80;99.90
27164;DHT22;14685;50.618;7.024;2024-01-16T04:06:26;4.80;99.90
27164;DHT22;14685;50.618;7.024;2024-01-16T04:08:54;4.70;99.90
27164;DHT22;14685;50.618;7.024;2024-01-16T04:11:24;4.80;99.90
27164;DHT22;14685;50.618;7.024;2024-01-16T04:13:53;4.70;99.90
27164;DHT22;14685;50.618;7.024;2024-01-16T04:16:19;4.70;99.90
27164;DHT22;14685;50.618;7.024;2024-01-16T04:18:47;4.80;99.90
27164;DHT22;14685;50.618;7.024;2024-01-16T04:21:14;4.70;99.90
27164;DHT22;14685;50.618;7.024;2024-01-16T04:23:46;4.70;99.90
27164;DHT22;14685;50.618;7.024;2024-01-16T04:26:13;4.70;99.90
27164;DHT22;14685;50.618;7.024;2024-01-16T04:28:40;4.70;99.90
27164;DHT22;14685;50.618;7.024;2024-01-16T04:31:09;4.70;99.90
27164;DHT22;14685;50.618;7.024;2024-01-16T04:33:38;4.70;99.90
27164;DHT22;14685;50.618;7.024;2024-01-16T04:36:06;4.70;99.90
27164;DHT22;14685;50.618;7.024;2024-01-16T04:38:33;4.70;99.90
27164;DHT22;14685;50.618;7.024;2024-01-16T04:41:03;4.70;99.90
27164;DHT22;14685;50.618;7.024;2024-01-16T04:43:31;4.70;99.90
27164;DHT22;14685;50.618;7.024;2024-01-16T04:45:58;4.70;99.90
27164;DHT22;14685;50.618;7.024;2024-01-16T04:48:29;4.70;99.90
27164;DHT22;14685;50.618;7.024;2024-01-16T04:50:56;4.70;99.90
27164;DHT22;14685;50.618;7.024;2024-01-16T04:53:23;4.70;99.90
27164;DHT22;14685;50.618;7.024;2024-01-16T04:55:51;4.70;99.90
27164;DHT22;14685;50.618;7.024;2024-01-16T04:58:17;4.60;99.90
27164;DHT22;14685;50.618;7.024;2024-01-16T05:00:45;4.60;99.90
27164;DHT22;14685;50.618;7.024;2024-01-16T05:03:13;4.60;99.90
27164;DHT22;14685;50.618;7.024;2024-01-16T05:05:41;4.60;99.90
27164;DHT22;14685;50.618;7.024;2024-01-16T05:08:08;4.60;99.90
27164;DHT22;14685;50.618;7.024;2024-01-16T05:10:35;4.50;99.90
27164;DHT22;14685;50.618;7.024;2024-01-16T05:13:03;4.50;99.90
27164;DHT22;14685;50.618;7.024;2024-01-16T05:15:30;4.50;99.90
27164;DHT22;14685;50.618;7.024;2024-01-16T05:17:57;4.50;99.90
27164;DHT22;14685;50.618;7.024;2024-01-16T05:20:24;4.50;99.90
27164;DHT22;14685;50.618;7.024;2024-01-16T05:22:51;4.50;99.90
27164;DHT22;14685;50.618;7.024;2024-01-16T05:25:18;4.50;99.90
27164;DHT22;14685;50.618;7.024;2024-01-16T05:27:46;4.50;99.90
27164;DHT22;14685;50.618;7.024;2024-01-16T05:30:14;4.60;99.90
27164;DHT22;14685;50.618;7.024;2024-01-16T05:32:44;4.60;99.90
27164;DHT22;14685;50.618;7.024;2024-01-16T05:35:11;4.60;99.90
27164;DHT22;14685;50.618;7.024;2024-01-16T05:37:38;4.60;99.90
27164;DHT22;14685;50.618;7.024;2024-01-16T05:40:05;4.70;99.90
27164;DHT22;14685;50.618;7.024;2024-01-16T05:42:35;4.70;99.90
27164;DHT22;14685;50.618;7.024;2024-01-16T05:45:03;4.70;99.90
27164;DHT22;14685;50.618;7.024;2024-01-16T05:47:31;4.70;99.90
27164;DHT22;14685;50.618;7.024;2024-01-16T05:49:58;4.70;99.90
27164;DHT22;14685;50.618;7.024;2024-01-16T05:52:26;4.70;99.90
27164;DHT22;14685;50.618;7.024;2024-01-16T05:54:53;4.70;99.90
27164;DHT22;14685;50.618;7.024;2024-01-16T05:57:24;4.70;99.90
27164;DHT22;14685;50.618;7.024;2024-01-16T05:59:52;4.70;99.90
27164;DHT22;14685;50.618;7.024;2024-01-16T06:02:21;4.70;99.90
27164;DHT22;14685;50.618;7.024;2024-01-16T06:04:49;4.70;99.90
27164;DHT22;14685;50.618;7.024;2024-01-16T06:07:16;4.70;99.90
27164;DHT22;14685;50.618;7.024;2024-01-16T06:09:43;4.70;99.90
27164;DHT22;14685;50.618;7.024;2024-01-16T06:12:10;4.70;99.90
27164;DHT22;14685;50.618;7.024;2024-01-16T06:14:38;4.70;99.90
27164;DHT22;14685;50.618;7.024;2024-01-16T06:17:05;4.70;99.90
27164;DHT22;14685;50.618;7.024;2024-01-16T06:19:33;4.70;99.90
27164;DHT22;14685;50.618;7.024;2024-01-16T06:22:00;4.70;99.90
27164;DHT22;14685;50.618;7.024;2024-01-16T06:24:27;4.70;99.90
27164;DHT22;14685;50.618;7.024;2024-01-16T06:26:56;4.70;99.90
27164;DHT22;14685;50.618;7.024;2024-01-16T06:29:23;4.70;99.90
27164;DHT22;14685;50.618;7.024;2024-01-16T06:32:03;4.70;99.90
27164;DHT22;14685;50.618;7.024;2024-01-16T06:34:30;4.70;99.90
27164;DHT22;14685;50.618;7.024;2024-01-16T06:36:56;4.60;99.90
27164;DHT22;14685;50.618;7.024;2024-01-16T06:39:25;4.60;99.90
27164;DHT22;14685;50.618;7.024;2024-01-16T06:41:53;4.60;99.90
27164;DHT22;14685;50.618;7.024;2024-01-16T06:44:21;4.60;99.90
27164;DHT22;14685;50.618;7.024;2024-01-16T06:46:48;4.60;99.90
27164;DHT22;14685;50.618;7.024;2024-01-16T06:49:16;4.50;99.90
27164;DHT22;14685;50.618;7.024;2024-01-16T06:51:45;4.50;99.90
27164;DHT22;14685;50.618;7.024;2024-01-16T06:54:12;4.50;99.90
27164;DHT22;14685;50.618;7.024;2024-01-16T06:56:39;4.50;99.90
27164;DHT22;14685;50.618;7.024;2024-01-16T06:59:06;4.50;99.90
27164;DHT22;14685;50.618;7.024;2024-01-16T07:01:37;4.50;99.90
27164;DHT22;14685;50.618;7.024;2024-01-16T07:04:04;4.50;99.90
27164;DHT22;14685;50.618;7.024;2024-01-16T07:06:31;4.50;99.90
27164;DHT22;14685;50.618;7.024;2024-01-16T07:08:58;4.50;99.90
27164;DHT22;14685;50.618;7.024;2024-01-16T07:11:25;4.50;99.90
27164;DHT22;14685;50.618;7.024;2024-01-16T07:13:52;4.40;99.90
27164;DHT22;14685;50.618;7.024;2024-01-16T07:16:19;4.40;99.90
27164;DHT22;14685;50.618;7.024;2024-01-16T07:18:46;4.40;99.90
27164;DHT22;14685;50.618;7.024;2024-01-16T07:21:18;4.40;99.90
27164;DHT22;14685;50.618;7.024;2024-01-16T07:23:45;4.40;99.90
27164;DHT22;14685;50.618;7.024;2024-01-16T07:26:12;4.40;99.90
27164;DHT22;14685;50.618;7.024;2024-01-16T07:28:39;4.30;99.90
27164;DHT22;14685;50.618;7.024;2024-01-16T07:31:06;4.40;99.90
27164;DHT22;14685;50.618;7.024;2024-01-16T07:33:33;4.30;99.90
27164;DHT22;14685;50.618;7.024;2024-01-16T07:36:05;4.30;99.90
27164;DHT22;14685;50.618;7.024;2024-01-16T07:38:33;4.30;99.90
27164;DHT22;14685;50.618;7.024;2024-01-16T07:41:00;4.30;99.90
27164;DHT22;14685;50.618;7.024;2024-01-16T07:43:28;4.30;99.90
27164;DHT22;14685;50.618;7.024;2024-01-16T07:45:56;4.30;99.90
27164;DHT22;14685;50.618;7.024;2024-01-16T07:48:23;4.30;99.90
27164;DHT22;14685;50.618;7.024;2024-01-16T07:50:51;4.30;99.90
27164;DHT22;14685;50.618;7.024;2024-01-16T07:53:18;4.30;99.90
27164;DHT22;14685;50.618;7.024;2024-01-16T07:55:45;4.30;99.90
27164;DHT22;14685;50.618;7.024;2024-01-16T07:58:13;4.30;99.90
27164;DHT22;14685;50.618;7.024;2024-01-16T08:00:40;4.30;99.90
27164;DHT22;14685;50.618;7.024;2024-01-16T08:03:08;4.40;99.90
27164;DHT22;14685;50.618;7.024;2024-01-16T08:05:40;4.40;99.90
27164;DHT22;14685;50.618;7.024;2024-01-16T08:08:10;4.40;99.90
27164;DHT22;14685;50.618;7.024;2024-01-16T08:10:38;4.40;99.90
27164;DHT22;14685;50.618;7.024;2024-01-16T08:15:37;4.40;99.90
27164;DHT22;14685;50.618;7.024;2024-01-16T08:18:04;4.40;99.90
27164;DHT22;14685;50.618;7.024;2024-01-16T08:20:32;4.40;99.90
27164;DHT22;14685;50.618;7.024;2024-01-16T08:22:59;4.30;99.90
27164;DHT22;14685;50.618;7.024;2024-01-16T08:25:26;4.30;99.90
27164;DHT22;14685;50.618;7.024;2024-01-16T08:27:53;4.30;99.90
27164;DHT22;14685;50.618;7.024;2024-01-16T08:30:20;4.30;99.90
27164;DHT22;14685;50.618;7.024;2024-01-16T08:32:47;4.30;99.90
27164;DHT22;14685;50.618;7.024;2024-01-16T08:35:14;4.30;99.90
27164;DHT22;14685;50.618;7.024;2024-01-16T08:37:41;4.30;99.90
27164;DHT22;14685;50.618;7.024;2024-01-16T08:40:09;4.30;99.90
27164;DHT22;14685;50.618;7.024;2024-01-16T08:42:38;4.20;99.90
27164;DHT22;14685;50.618;7.024;2024-01-16T08:45:06;4.20;99.90
27164;DHT22;14685;50.618;7.024;2024-01-16T08:47:33;4.20;99.90
27164;DHT22;14685;50.618;7.024;2024-01-16T08:50:01;4.30;99.90
27164;DHT22;14685;50.618;7.024;2024-01-16T08:52:30;4.40;99.90
27164;DHT22;14685;50.618;7.024;2024-01-16T08:54:57;4.60;99.90
27164;DHT22;14685;50.618;7.024;2024-01-16T08:57:25;4.80;99.90
27164;DHT22;14685;50.618;7.024;2024-01-16T08:59:55;4.90;99.90
27164;DHT22;14685;50.618;7.024;2024-01-16T09:02:22;4.90;99.90
27164;DHT22;14685;50.618;7.024;2024-01-16T09:04:51;5.00;99.90
27164;DHT22;14685;50.618;7.024;2024-01-16T09:07:18;5.00;99.90
27164;DHT22;14685;50.618;7.024;2024-01-16T09:09:46;5.00;99.90
27164;DHT22;14685;50.618;7.024;2024-01-16T09:12:12;4.80;99.90
27164;DHT22;14685;50.618;7.024;2024-01-16T09:14:40;4.90;99.90
27164;DHT22;14685;50.618;7.024;2024-01-16T09:17:08;4.90;99.90
27164;DHT22;14685;50.618;7.024;2024-01-16T09:19:35;5.00;99.90
27164;DHT22;14685;50.618;7.024;2024-01-16T09:22:02;5.00;99.90
27164;DHT22;14685;50.618;7.024;2024-01-16T09:24:30;5.10;99.90
27164;DHT22;14685;50.618;7.024;2024-01-16T09:26:58;5.10;99.90
27164;DHT22;14685;50.618;7.024;2024-01-16T09:29:25;5.10;99.90
27164;DHT22;14685;50.618;7.024;2024-01-16T09:31:52;5.00;99.90
27164;DHT22;14685;50.618;7.024;2024-01-16T09:34:19;5.00;99.90
27164;DHT22;14685;50.618;7.024;2024-01-16T09:36:46;4.90;99.90
27164;DHT22;14685;50.618;7.024;2024-01-16T09:39:13;5.00;99.90
27164;DHT22;14685;50.618;7.024;2024-01-16T09:41:45;5.00;99.90
27164;DHT22;14685;50.618;7.024;2024-01-16T09:44:13;4.90;99.90
27164;DHT22;14685;50.618;7.024;2024-01-16T09:46:40;4.90;99.90
27164;DHT22;14685;50.618;7.024;2024-01-16T09:49:10;4.90;99.90
27164;DHT22;14685;50.618;7.024;2024-01-16T09:51:38;4.80;99.90
27164;DHT22;14685;50.618;7.024;2024-01-16T09:54:07;4.80;99.90
27164;DHT22;14685;50.618;7.024;2024-01-16T09:56:41;4.80;99.90
27164;DHT22;14685;50.618;7.024;2024-01-16T09:59:09;4.80;99.90
27164;DHT22;14685;50.618;7.024;2024-01-16T10:01:39;4.80;99.90
27164;DHT22;14685;50.618;7.024;2024-01-16T10:04:06;4.90;99.90
27164;DHT22;14685;50.618;7.024;2024-01-16T10:06:34;4.90;99.90
27164;DHT22;14685;50.618;7.024;2024-01-16T10:09:03;5.00;99.90
27164;DHT22;14685;50.618;7.024;2024-01-16T10:11:33;5.10;99.90
27164;DHT22;14685;50.618;7.024;2024-01-16T10:14:00;5.10;99.90
27164;DHT22;14685;50.618;7.024;2024-01-16T10:19:29;5.20;99.90
27164;DHT22;14685;50.618;7.024;2024-01-16T10:22:12;5.30;99.90
27164;DHT22;14685;50.618;7.024;2024-01-16T10:24:40;5.30;99.90
27164;DHT22;14685;50.618;7.024;2024-01-16T10:27:07;5.40;99.90
27164;DHT22;14685;50.618;7.024;2024-01-16T10:29:34;5.50;99.90
27164;DHT22;14685;50.618;7.024;2024-01-16T10:32:30;5.50;99.90
27164;DHT22;14685;50.618;7.024;2024-01-16T10:35:08;5.50;99.90
27164;DHT22;14685;50.618;7.024;2024-01-16T10:37:43;5.60;99.90
27164;DHT22;14685;50.618;7.024;2024-01-16T10:40:12;5.60;99.90
27164;DHT22;14685;50.618;7.024;2024-01-16T10:42:40;5.80;99.90
27164;DHT22;14685;50.618;7.024;2024-01-16T10:45:07;5.70;99.90
27164;DHT22;14685;50.618;7.024;2024-01-16T10:47:34;5.60;99.90
27164;DHT22;14685;50.618;7.024;2024-01-16T10:50:05;5.50;99.90
27164;DHT22;14685;50.618;7.024;2024-01-16T10:52:34;5.60;99.90
27164;DHT22;14685;50.618;7.024;2024-01-16T10:55:03;5.60;99.90
27164;DHT22;14685;50.618;7.024;2024-01-16T10:57:32;5.70;99.90
27164;DHT22;14685;50.618;7.024;2024-01-16T11:00:04;5.80;99.90
27164;DHT22;14685;50.618;7.024;2024-01-16T11:02:43;5.90;99.90
27164;DHT22;14685;50.618;7.024;2024-01-16T11:05:17;6.10;99.90
27164;DHT22;14685;50.618;7.024;2024-01-16T11:07:44;6.30;99.90
27164;DHT22;14685;50.618;7.024;2024-01-16T11:10:12;6.30;99.90
27164;DHT22;14685;50.618;7.024;2024-01-16T11:12:40;6.30;99.90
27164;DHT22;14685;50.618;7.024;2024-01-16T11:15:10;6.30;99.90
27164;DHT22;14685;50.618;7.024;2024-01-16T11:17:40;6.30;99.90
27164;DHT22;14685;50.618;7.024;2024-01-16T11:20:11;6.30;99.90
27164;DHT22;14685;50.618;7.024;2024-01-16T11:22:58;6.40;99.90
27164;DHT22;14685;50.618;7.024;2024-01-16T11:25:32;6.40;99.90
27164;DHT22;14685;50.618;7.024;2024-01-16T11:28:09;6.40;99.90
27164;DHT22;14685;50.618;7.024;2024-01-16T11:30:40;6.50;99.90
27164;DHT22;14685;50.618;7.024;2024-01-16T11:36:01;6.50;99.90
27164;DHT22;14685;50.618;7.024;2024-01-16T11:38:29;6.50;99.90
27164;DHT22;14685;50.618;7.024;2024-01-16T11:40:59;6.50;99.90
27164;DHT22;14685;50.618;7.024;2024-01-16T11:46:07;6.50;99.90
27164;DHT22;14685;50.618;7.024;2024-01-16T11:48:35;6.50;99.90
27164;DHT22;14685;50.618;7.024;2024-01-16T11:51:23;6.50;99.90
27164;DHT22;14685;50.618;7.024;2024-01-16T11:53:50;6.50;99.90
27164;DHT22;14685;50.618;7.024;2024-01-16T11:57:01;6.40;99.90
27164;DHT22;14685;50.618;7.024;2024-01-16T11:59:55;6.40;99.90
27164;DHT22;14685;50.618;7.024;2024-01-16T12:02:34;6.40;99.90
27164;DHT22;14685;50.618;7.024;2024-01-16T12:05:04;6.40;99.90
27164;DHT22;14685;50.618;7.024;2024-01-16T12:07:47;6.30;99.90
27164;DHT22;14685;50.618;7.024;2024-01-16T12:10:20;6.30;99.90
27164;DHT22;14685;50.618;7.024;2024-01-16T12:12:49;6.30;99.90
27164;DHT22;14685;50.618;7.024;2024-01-16T12:15:18;6.20;99.90
27164;DHT22;14685;50.618;7.024;2024-01-16T12:20:19;6.20;99.90
27164;DHT22;14685;50.618;7.024;2024-01-16T12:22:53;6.20;99.90
27164;DHT22;14685;50.618;7.024;2024-01-16T12:25:20;6.20;99.90
27164;DHT22;14685;50.618;7.024;2024-01-16T12:27:55;6.20;99.90
27164;DHT22;14685;50.618;7.024;2024-01-16T12:30:27;6.20;99.90
27164;DHT22;14685;50.618;7.024;2024-01-16T12:33:12;6.20;99.90
27164;DHT22;14685;50.618;7.024;2024-01-16T12:35:40;6.20;99.90
27164;DHT22;14685;50.618;7.024;2024-01-16T12:38:09;6.20;99.90
27164;DHT22;14685;50.618;7.024;2024-01-16T12:40:39;6.20;99.90
27164;DHT22;14685;50.618;7.024;2024-01-16T12:43:07;6.10;99.90
27164;DHT22;14685;50.618;7.024;2024-01-16T12:45:36;6.10;99.90
27164;DHT22;14685;50.618;7.024;2024-01-16T12:48:12;6.10;99.90
27164;DHT22;14685;50.618;7.024;2024-01-16T12:50:39;6.00;99.90
27164;DHT22;14685;50.618;7.024;2024-01-16T12:53:11;6.00;99.90
27164;DHT22;14685;50.618;7.024;2024-01-16T12:55:40;5.90;99.90
27164;DHT22;14685;50.618;7.024;2024-01-16T12:58:20;5.90;99.90
27164;DHT22;14685;50.618;7.024;2024-01-16T13:00:51;5.90;99.90
27164;DHT22;14685;50.618;7.024;2024-01-16T13:03:24;5.90;99.90
27164;DHT22;14685;50.618;7.024;2024-01-16T13:05:57;5.90;99.90
27164;DHT22;14685;50.618;7.024;2024-01-16T13:08:25;5.90;99.90
27164;DHT22;14685;50.618;7.024;2024-01-16T13:11:22;5.90;99.90
27164;DHT22;14685;50.618;7.024;2024-01-16T13:14:04;5.90;99.90
27164;DHT22;14685;50.618;7.024;2024-01-16T13:16:31;5.90;99.90
27164;DHT22;14685;50.618;7.024;2024-01-16T13:19:02;5.90;99.90
27164;DHT22;14685;50.618;7.024;2024-01-16T13:21:31;5.90;99.90
27164;DHT22;14685;50.618;7.024;2024-01-16T13:23:57;5.90;99.90
27164;DHT22;14685;50.618;7.024;2024-01-16T13:26:25;5.90;99.90
27164;DHT22;14685;50.618;7.024;2024-01-16T13:28:52;5.90;99.90
27164;DHT22;14685;50.618;7.024;2024-01-16T13:31:19;5.80;99.90
27164;DHT22;14685;50.618;7.024;2024-01-16T13:33:46;5.80;99.90
27164;DHT22;14685;50.618;7.024;2024-01-16T13:36:16;5.80;99.90
27164;DHT22;14685;50.618;7.024;2024-01-16T13:39:04;5.80;99.90
27164;DHT22;14685;50.618;7.024;2024-01-16T13:41:40;5.80;99.90
27164;DHT22;14685;50.618;7.024;2024-01-16T13:44:08;5.70;99.90
27164;DHT22;14685;50.618;7.024;2024-01-16T13:46:35;5.80;99.90
27164;DHT22;14685;50.618;7.024;2024-01-16T13:49:22;5.70;99.90
27164;DHT22;14685;50.618;7.024;2024-01-16T13:51:50;5.70;99.90
27164;DHT22;14685;50.618;7.024;2024-01-16T13:54:18;5.70;99.90
27164;DHT22;14685;50.618;7.024;2024-01-16T13:56:45;5.70;99.90
27164;DHT22;14685;50.618;7.024;2024-01-16T13:59:31;5.70;99.90
27164;DHT22;14685;50.618;7.024;2024-01-16T14:01:58;5.60;99.90
27164;DHT22;14685;50.618;7.024;2024-01-16T14:04:25;5.60;99.90
27164;DHT22;14685;50.618;7.024;2024-01-16T14:06:52;5.60;99.90
27164;DHT22;14685;50.618;7.024;2024-01-16T14:09:38;5.60;99.90
27164;DHT22;14685;50.618;7.024;2024-01-16T14:12:09;5.50;99.90
27164;DHT22;14685;50.618;7.024;2024-01-16T14:14:38;5.50;99.90
27164;DHT22;14685;50.618;7.024;2024-01-16T14:17:05;5.50;99.90
27164;DHT22;14685;50.618;7.024;2024-01-16T14:19:35;5.40;99.90
27164;DHT22;14685;50.618;7.024;2024-01-16T14:22:03;5.40;99.90
27164;DHT22;14685;50.618;7.024;2024-01-16T14:24:30;5.40;99.90
27164;DHT22;14685;50.618;7.024;2024-01-16T14:26:57;5.30;99.90
27164;DHT22;14685;50.618;7.024;2024-01-16T14:29:24;5.30;99.90
27164;DHT22;14685;50.618;7.024;2024-01-16T14:31:52;5.20;99.90
27164;DHT22;14685;50.618;7.024;2024-01-16T14:34:20;5.20;99.90
27164;DHT22;14685;50.618;7.024;2024-01-16T14:36:47;5.20;99.90
27164;DHT22;14685;50.618;7.024;2024-01-16T14:39:15;5.20;99.90
27164;DHT22;14685;50.618;7.024;2024-01-16T14:41:45;5.10;99.90
27164;DHT22;14685;50.618;7.024;2024-01-16T14:44:13;5.20;99.90
27164;DHT22;14685;50.618;7.024;2024-01-16T14:46:40;5.10;99.90
27164;DHT22;14685;50.618;7.024;2024-01-16T14:49:12;5.10;99.90
27164;DHT22;14685;50.618;7.024;2024-01-16T14:51:40;5.10;99.90
27164;DHT22;14685;50.618;7.024;2024-01-16T14:54:07;5.10;99.90
27164;DHT22;14685;50.618;7.024;2024-01-16T14:56:34;5.00;99.90
27164;DHT22;14685;50.618;7.024;2024-01-16T14:59:01;5.10;99.90
27164;DHT22;14685;50.618;7.024;2024-01-16T15:01:28;5.00;99.90
27164;DHT22;14685;50.618;7.024;2024-01-16T15:03:55;5.00;99.90
27164;DHT22;14685;50.618;7.024;2024-01-16T15:06:25;4.90;99.90
27164;DHT22;14685;50.618;7.024;2024-01-16T15:08:54;4.90;99.90
27164;DHT22;14685;50.618;7.024;2024-01-16T15:11:21;4.90;99.90
27164;DHT22;14685;50.618;7.024;2024-01-16T15:13:49;4.80;99.90
27164;DHT22;14685;50.618;7.024;2024-01-16T15:16:16;4.80;99.90
27164;DHT22;14685;50.618;7.024;2024-01-16T15:18:45;4.80;99.90
27164;DHT22;14685;50.618;7.024;2024-01-16T15:21:13;4.80;99.90
27164;DHT22;14685;50.618;7.024;2024-01-16T15:23:40;4.80;99.90
27164;DHT22;14685;50.618;7.024;2024-01-16T15:26:07;4.70;99.90
27164;DHT22;14685;50.618;7.024;2024-01-16T15:28:34;4.70;99.90
27164;DHT22;14685;50.618;7.024;2024-01-16T15:31:01;4.70;99.90
27164;DHT22;14685;50.618;7.024;2024-01-16T15:33:34;4.70;99.90
27164;DHT22;14685;50.618;7.024;2024-01-16T15:36:03;4.70;99.90
27164;DHT22;14685;50.618;7.024;2024-01-16T15:38:30;4.60;99.90
27164;DHT22;14685;50.618;7.024;2024-01-16T15:40:58;4.50;99.90
27164;DHT22;14685;50.618;7.024;2024-01-16T15:43:25;4.50;99.90
27164;DHT22;14685;50.618;7.024;2024-01-16T15:45:52;4.60;99.90
27164;DHT22;14685;50.618;7.024;2024-01-16T15:48:22;4.50;99.90
27164;DHT22;14685;50.618;7.024;2024-01-16T15:50:50;4.50;99.90
27164;DHT22;14685;50.618;7.024;2024-01-16T15:53:17;4.50;99.90
27164;DHT22;14685;50.618;7.024;2024-01-16T15:55:44;4.50;99.90
27164;DHT22;14685;50.618;7.024;2024-01-16T15:58:11;4.40;99.90
27164;DHT22;14685;50.618;7.024;2024-01-16T16:00:38;4.40;99.90
27164;DHT22;14685;50.618;7.024;2024-01-16T16:03:05;4.30;99.90
27164;DHT22;14685;50.618;7.024;2024-01-16T16:05:33;4.30;99.90
27164;DHT22;14685;50.618;7.024;2024-01-16T16:08:00;4.30;99.90
27164;DHT22;14685;50.618;7.024;2024-01-16T16:10:27;4.20;99.90
27164;DHT22;14685;50.618;7.024;2024-01-16T16:12:55;4.20;99.90